sensor_id;sensor_type;location;lat;lon;timestamp;P1;durP1;ratioP1;P2;durP2;ratioP2
63320;SDS011;49449;48.800;9.534;2023-03-21T00:00:43;3.22;;;2.80;;
63320;SDS011;49449;48.800;9.534;2023-03-21T00:03:13;5.40;;;3.50;;
63320;SDS011;49449;48.800;9.534;2023-03-21T00:05:42;3.80;;;3.00;;
63320;SDS011;49449;48.800;9.534;2023-03-21T00:08:16;5.68;;;3.70;;
63320;SDS011;49449;48.800;9.534;2023-03-21T00:10:44;4.28;;;3.88;;
63320;SDS011;49449;48.800;9.534;2023-03-21T00:13:12;3.72;;;3.33;;
63320;SDS011;49449;48.800;9.534;2023-03-21T00:15:41;4.45;;;3.17;;
63320;SDS011;49449;48.800;9.534;2023-03-21T00:18:29;5.35;;;3.15;;
63320;SDS011;49449;48.800;9.534;2023-03-21T00:20:57;3.28;;;2.90;;
63320;SDS011;49449;48.800;9.534;2023-03-21T00:23:47;6.38;;;3.92;;
63320;SDS011;49449;48.800;9.534;2023-03-21T00:26:15;4.22;;;3.83;;
63320;SDS011;49449;48.800;9.534;2023-03-21T00:28:43;3.60;;;3.30;;
63320;SDS011;49449;48.800;9.534;2023-03-21T00:31:11;4.78;;;3.15;;
63320;SDS011;49449;48.800;9.534;2023-03-21T00:33:39;4.65;;;4.10;;
63320;SDS011;49449;48.800;9.534;2023-03-21T00:36:07;5.63;;;3.38;;
63320;SDS011;49449;48.800;9.534;2023-03-21T00:38:36;4.43;;;2.78;;
63320;SDS011;49449;48.800;9.534;2023-03-21T00:41:06;3.92;;;3.53;;
63320;SDS011;49449;48.800;9.534;2023-03-21T00:43:48;4.05;;;2.85;;
63320;SDS011;49449;48.800;9.534;2023-03-21T00:46:17;3.10;;;2.80;;
63320;SDS011;49449;48.800;9.534;2023-03-21T00:48:47;4.53;;;3.83;;
63320;SDS011;49449;48.800;9.534;2023-03-21T00:51:17;4.20;;;3.65;;
63320;SDS011;49449;48.800;9.534;2023-03-21T00:53:52;3.65;;;3.05;;
63320;SDS011;49449;48.800;9.534;2023-03-21T00:56:23;3.58;;;3.10;;
63320;SDS011;49449;48.800;9.534;2023-03-21T00:58:51;4.82;;;3.78;;
63320;SDS011;49449;48.800;9.534;2023-03-21T01:01:19;4.03;;;3.20;;
63320;SDS011;49449;48.800;9.534;2023-03-21T01:03:47;4.45;;;3.83;;
63320;SDS011;49449;48.800;9.534;2023-03-21T01:06:28;4.47;;;2.80;;
63320;SDS011;49449;48.800;9.534;2023-03-21T01:08:56;4.05;;;3.75;;
63320;SDS011;49449;48.800;9.534;2023-03-21T01:11:26;3.92;;;3.10;;
63320;SDS011;49449;48.800;9.534;2023-03-21T01:13:55;4.78;;;3.67;;
63320;SDS011;49449;48.800;9.534;2023-03-21T01:16:40;5.00;;;3.38;;
63320;SDS011;49449;48.800;9.534;2023-03-21T01:19:10;4.28;;;2.80;;
63320;SDS011;49449;48.800;9.534;2023-03-21T01:21:50;4.00;;;3.63;;
63320;SDS011;49449;48.800;9.534;2023-03-21T01:24:18;4.18;;;2.75;;
63320;SDS011;49449;48.800;9.534;2023-03-21T01:26:47;3.22;;;2.92;;
63320;SDS011;49449;48.800;9.534;2023-03-21T01:29:15;4.65;;;3.10;;
63320;SDS011;49449;48.800;9.534;2023-03-21T01:31:43;4.55;;;3.35;;
63320;SDS011;49449;48.800;9.534;2023-03-21T01:34:11;5.10;;;3.28;;
63320;SDS011;49449;48.800;9.534;2023-03-21T01:36:38;3.83;;;2.88;;
63320;SDS011;49449;48.800;9.534;2023-03-21T01:39:06;3.10;;;2.80;;
63320;SDS011;49449;48.800;9.534;2023-03-21T01:41:35;4.40;;;2.95;;
63320;SDS011;49449;48.800;9.534;2023-03-21T01:44:11;3.90;;;3.17;;
63320;SDS011;49449;48.800;9.534;2023-03-21T01:46:42;5.88;;;3.05;;
63320;SDS011;49449;48.800;9.534;2023-03-21T01:49:22;3.85;;;3.05;;
63320;SDS011;49449;48.800;9.534;2023-03-21T01:51:54;2.70;;;2.45;;
63320;SDS011;49449;48.800;9.534;2023-03-21T01:54:37;4.85;;;3.53;;
63320;SDS011;49449;48.800;9.534;2023-03-21T01:57:07;3.83;;;2.60;;
63320;SDS011;49449;48.800;9.534;2023-03-21T01:59:40;4.20;;;3.33;;
63320;SDS011;49449;48.800;9.534;2023-03-21T02:02:12;5.50;;;2.50;;
63320;SDS011;49449;48.800;9.534;2023-03-21T02:04:46;3.38;;;2.97;;
63320;SDS011;49449;48.800;9.534;2023-03-21T02:07:17;5.55;;;3.60;;
63320;SDS011;49449;48.800;9.534;2023-03-21T02:09:49;4.80;;;2.95;;
63320;SDS011;49449;48.800;9.534;2023-03-21T02:12:19;4.97;;;2.80;;
63320;SDS011;49449;48.800;9.534;2023-03-21T02:14:48;3.35;;;2.88;;
63320;SDS011;49449;48.800;9.534;2023-03-21T02:17:18;5.63;;;4.20;;
63320;SDS011;49449;48.800;9.534;2023-03-21T02:23:18;3.67;;;2.85;;
63320;SDS011;49449;48.800;9.534;2023-03-21T02:29:08;3.80;;;3.50;;
63320;SDS011;49449;48.800;9.534;2023-03-21T02:31:51;3.92;;;3.53;;
63320;SDS011;49449;48.800;9.534;2023-03-21T02:34:50;3.30;;;2.90;;
63320;SDS011;49449;48.800;9.534;2023-03-21T02:37:33;3.50;;;2.90;;
63320;SDS011;49449;48.800;9.534;2023-03-21T02:40:09;3.65;;;2.70;;
63320;SDS011;49449;48.800;9.534;2023-03-21T02:42:43;4.68;;;2.80;;
63320;SDS011;49449;48.800;9.534;2023-03-21T02:45:27;3.85;;;3.00;;
63320;SDS011;49449;48.800;9.534;2023-03-21T02:48:00;3.45;;;2.45;;
63320;SDS011;49449;48.800;9.534;2023-03-21T02:50:33;3.40;;;3.10;;
63320;SDS011;49449;48.800;9.534;2023-03-21T02:53:08;4.93;;;2.83;;
63320;SDS011;49449;48.800;9.534;2023-03-21T02:55:39;3.13;;;2.80;;
63320;SDS011;49449;48.800;9.534;2023-03-21T02:58:10;3.17;;;2.85;;
63320;SDS011;49449;48.800;9.534;2023-03-21T03:00:41;3.85;;;3.55;;
63320;SDS011;49449;48.800;9.534;2023-03-21T03:03:10;3.95;;;2.85;;
63320;SDS011;49449;48.800;9.534;2023-03-21T03:05:51;3.90;;;3.10;;
63320;SDS011;49449;48.800;9.534;2023-03-21T03:08:30;4.18;;;3.38;;
63320;SDS011;49449;48.800;9.534;2023-03-21T03:11:19;3.72;;;2.80;;
63320;SDS011;49449;48.800;9.534;2023-03-21T03:13:57;3.95;;;3.22;;
63320;SDS011;49449;48.800;9.534;2023-03-21T03:16:57;4.53;;;3.08;;
63320;SDS011;49449;48.800;9.534;2023-03-21T03:19:35;4.60;;;3.83;;
63320;SDS011;49449;48.800;9.534;2023-03-21T03:22:16;4.30;;;3.20;;
63320;SDS011;49449;48.800;9.534;2023-03-21T03:24:53;3.38;;;3.00;;
63320;SDS011;49449;48.800;9.534;2023-03-21T03:27:31;4.18;;;2.90;;
63320;SDS011;49449;48.800;9.534;2023-03-21T03:30:04;3.22;;;2.92;;
63320;SDS011;49449;48.800;9.534;2023-03-21T03:32:36;2.80;;;2.60;;
63320;SDS011;49449;48.800;9.534;2023-03-21T03:35:10;4.03;;;3.25;;
63320;SDS011;49449;48.800;9.534;2023-03-21T03:37:41;3.75;;;3.45;;
63320;SDS011;49449;48.800;9.534;2023-03-21T03:40:14;4.30;;;3.65;;
63320;SDS011;49449;48.800;9.534;2023-03-21T03:42:45;3.45;;;2.85;;
63320;SDS011;49449;48.800;9.534;2023-03-21T03:45:16;3.42;;;2.50;;
63320;SDS011;49449;48.800;9.534;2023-03-21T03:47:46;4.93;;;2.85;;
63320;SDS011;49449;48.800;9.534;2023-03-21T03:50:23;2.88;;;2.53;;
63320;SDS011;49449;48.800;9.534;2023-03-21T03:52:55;2.67;;;2.47;;
63320;SDS011;49449;48.800;9.534;2023-03-21T03:55:36;4.45;;;2.67;;
63320;SDS011;49449;48.800;9.534;2023-03-21T03:58:04;3.40;;;2.60;;
63320;SDS011;49449;48.800;9.534;2023-03-21T04:00:44;2.60;;;2.40;;
63320;SDS011;49449;48.800;9.534;2023-03-21T04:03:12;3.13;;;2.50;;
63320;SDS011;49449;48.800;9.534;2023-03-21T04:05:41;2.88;;;2.60;;
63320;SDS011;49449;48.800;9.534;2023-03-21T04:08:11;3.10;;;2.63;;
63320;SDS011;49449;48.800;9.534;2023-03-21T04:10:42;3.45;;;3.22;;
63320;SDS011;49449;48.800;9.534;2023-03-21T04:13:10;2.90;;;2.70;;
63320;SDS011;49449;48.800;9.534;2023-03-21T04:15:38;2.90;;;2.70;;
63320;SDS011;49449;48.800;9.534;2023-03-21T04:18:06;3.75;;;2.90;;
63320;SDS011;49449;48.800;9.534;2023-03-21T04:20:34;3.13;;;2.70;;
63320;SDS011;49449;48.800;9.534;2023-03-21T04:23:02;3.53;;;3.22;;
63320;SDS011;49449;48.800;9.534;2023-03-21T04:25:32;4.35;;;2.95;;
63320;SDS011;49449;48.800;9.534;2023-03-21T04:28:03;3.95;;;3.50;;
63320;SDS011;49449;48.800;9.534;2023-03-21T04:30:31;3.47;;;2.85;;
63320;SDS011;49449;48.800;9.534;2023-03-21T04:32:59;3.17;;;2.70;;
63320;SDS011;49449;48.800;9.534;2023-03-21T04:35:27;2.85;;;2.28;;
63320;SDS011;49449;48.800;9.534;2023-03-21T04:37:55;2.90;;;2.70;;
63320;SDS011;49449;48.800;9.534;2023-03-21T04:40:23;3.90;;;2.58;;
63320;SDS011;49449;48.800;9.534;2023-03-21T04:42:51;5.13;;;2.65;;
63320;SDS011;49449;48.800;9.534;2023-03-21T04:45:20;3.63;;;3.30;;
63320;SDS011;49449;48.800;9.534;2023-03-21T04:47:48;3.70;;;2.80;;
63320;SDS011;49449;48.800;9.534;2023-03-21T04:50:16;3.17;;;2.88;;
63320;SDS011;49449;48.800;9.534;2023-03-21T04:52:44;3.00;;;2.70;;
63320;SDS011;49449;48.800;9.534;2023-03-21T04:55:11;3.35;;;2.50;;
63320;SDS011;49449;48.800;9.534;2023-03-21T04:57:39;2.80;;;2.60;;
63320;SDS011;49449;48.800;9.534;2023-03-21T05:00:08;3.25;;;2.95;;
63320;SDS011;49449;48.800;9.534;2023-03-21T05:02:38;3.33;;;2.63;;
63320;SDS011;49449;48.800;9.534;2023-03-21T05:05:06;4.18;;;2.55;;
63320;SDS011;49449;48.800;9.534;2023-03-21T05:07:37;2.80;;;2.60;;
63320;SDS011;49449;48.800;9.534;2023-03-21T05:10:07;3.15;;;2.85;;
63320;SDS011;49449;48.800;9.534;2023-03-21T05:12:37;2.83;;;2.58;;
63320;SDS011;49449;48.800;9.534;2023-03-21T05:15:05;2.95;;;2.75;;
63320;SDS011;49449;48.800;9.534;2023-03-21T05:17:34;3.65;;;2.50;;
63320;SDS011;49449;48.800;9.534;2023-03-21T05:20:03;3.20;;;2.60;;
63320;SDS011;49449;48.800;9.534;2023-03-21T05:22:34;3.55;;;3.25;;
63320;SDS011;49449;48.800;9.534;2023-03-21T05:25:06;3.63;;;2.70;;
63320;SDS011;49449;48.800;9.534;2023-03-21T05:27:35;3.70;;;2.67;;
63320;SDS011;49449;48.800;9.534;2023-03-21T05:30:03;3.50;;;3.20;;
63320;SDS011;49449;48.800;9.534;2023-03-21T05:32:33;3.65;;;3.30;;
63320;SDS011;49449;48.800;9.534;2023-03-21T05:35:00;3.22;;;2.55;;
63320;SDS011;49449;48.800;9.534;2023-03-21T05:37:30;3.70;;;2.90;;
63320;SDS011;49449;48.800;9.534;2023-03-21T05:39:58;3.90;;;2.80;;
63320;SDS011;49449;48.800;9.534;2023-03-21T05:42:26;3.88;;;3.45;;
63320;SDS011;49449;48.800;9.534;2023-03-21T05:44:54;3.47;;;3.17;;
63320;SDS011;49449;48.800;9.534;2023-03-21T05:47:22;3.20;;;2.60;;
63320;SDS011;49449;48.800;9.534;2023-03-21T05:49:49;4.15;;;3.40;;
63320;SDS011;49449;48.800;9.534;2023-03-21T05:52:19;3.60;;;2.58;;
63320;SDS011;49449;48.800;9.534;2023-03-21T05:54:46;2.80;;;2.50;;
63320;SDS011;49449;48.800;9.534;2023-03-21T05:57:14;4.38;;;2.85;;
63320;SDS011;49449;48.800;9.534;2023-03-21T05:59:44;3.20;;;2.90;;
63320;SDS011;49449;48.800;9.534;2023-03-21T06:02:12;3.20;;;2.50;;
63320;SDS011;49449;48.800;9.534;2023-03-21T06:04:40;3.85;;;3.10;;
63320;SDS011;49449;48.800;9.534;2023-03-21T06:07:07;4.53;;;2.97;;
63320;SDS011;49449;48.800;9.534;2023-03-21T06:09:36;3.70;;;2.92;;
63320;SDS011;49449;48.800;9.534;2023-03-21T06:12:04;3.95;;;2.78;;
63320;SDS011;49449;48.800;9.534;2023-03-21T06:14:32;3.47;;;2.85;;
63320;SDS011;49449;48.800;9.534;2023-03-21T06:17:00;3.15;;;2.72;;
63320;SDS011;49449;48.800;9.534;2023-03-21T06:19:28;3.20;;;2.88;;
63320;SDS011;49449;48.800;9.534;2023-03-21T06:21:56;4.90;;;3.65;;
63320;SDS011;49449;48.800;9.534;2023-03-21T06:24:24;3.53;;;2.90;;
63320;SDS011;49449;48.800;9.534;2023-03-21T06:26:53;3.78;;;3.38;;
63320;SDS011;49449;48.800;9.534;2023-03-21T06:29:21;4.05;;;3.28;;
63320;SDS011;49449;48.800;9.534;2023-03-21T06:31:49;3.03;;;2.80;;
63320;SDS011;49449;48.800;9.534;2023-03-21T06:34:17;3.80;;;3.50;;
63320;SDS011;49449;48.800;9.534;2023-03-21T06:36:45;3.20;;;2.90;;
63320;SDS011;49449;48.800;9.534;2023-03-21T06:39:13;3.88;;;2.90;;
63320;SDS011;49449;48.800;9.534;2023-03-21T06:41:42;3.92;;;3.25;;
63320;SDS011;49449;48.800;9.534;2023-03-21T06:44:11;3.50;;;3.05;;
63320;SDS011;49449;48.800;9.534;2023-03-21T06:46:39;4.35;;;3.80;;
63320;SDS011;49449;48.800;9.534;2023-03-21T06:49:07;5.32;;;4.53;;
63320;SDS011;49449;48.800;9.534;2023-03-21T06:51:35;7.85;;;5.30;;
63320;SDS011;49449;48.800;9.534;2023-03-21T06:54:03;6.03;;;5.22;;
63320;SDS011;49449;48.800;9.534;2023-03-21T06:56:30;7.10;;;5.40;;
63320;SDS011;49449;48.800;9.534;2023-03-21T06:58:58;7.28;;;4.82;;
63320;SDS011;49449;48.800;9.534;2023-03-21T07:01:28;6.43;;;5.22;;
63320;SDS011;49449;48.800;9.534;2023-03-21T07:03:56;5.03;;;4.03;;
63320;SDS011;49449;48.800;9.534;2023-03-21T07:06:25;5.72;;;4.80;;
63320;SDS011;49449;48.800;9.534;2023-03-21T07:08:53;4.30;;;3.78;;
63320;SDS011;49449;48.800;9.534;2023-03-21T07:11:22;3.83;;;3.42;;
63320;SDS011;49449;48.800;9.534;2023-03-21T07:13:50;4.55;;;3.38;;
63320;SDS011;49449;48.800;9.534;2023-03-21T07:16:19;5.70;;;4.00;;
63320;SDS011;49449;48.800;9.534;2023-03-21T07:18:49;6.75;;;4.28;;
63320;SDS011;49449;48.800;9.534;2023-03-21T07:21:17;6.18;;;3.72;;
63320;SDS011;49449;48.800;9.534;2023-03-21T07:23:45;4.05;;;3.45;;
63320;SDS011;49449;48.800;9.534;2023-03-21T07:26:15;5.25;;;4.40;;
63320;SDS011;49449;48.800;9.534;2023-03-21T07:28:43;4.50;;;4.07;;
63320;SDS011;49449;48.800;9.534;2023-03-21T07:31:12;3.63;;;3.13;;
63320;SDS011;49449;48.800;9.534;2023-03-21T07:33:41;4.60;;;3.58;;
63320;SDS011;49449;48.800;9.534;2023-03-21T07:36:12;5.25;;;4.45;;
63320;SDS011;49449;48.800;9.534;2023-03-21T07:38:41;4.35;;;3.53;;
63320;SDS011;49449;48.800;9.534;2023-03-21T07:41:09;4.30;;;3.55;;
63320;SDS011;49449;48.800;9.534;2023-03-21T07:43:37;3.70;;;3.28;;
63320;SDS011;49449;48.800;9.534;2023-03-21T07:46:05;4.65;;;3.92;;
63320;SDS011;49449;48.800;9.534;2023-03-21T07:48:33;4.10;;;3.55;;
63320;SDS011;49449;48.800;9.534;2023-03-21T07:51:02;3.90;;;3.50;;
63320;SDS011;49449;48.800;9.534;2023-03-21T07:53:33;5.15;;;4.60;;
63320;SDS011;49449;48.800;9.534;2023-03-21T07:56:01;4.35;;;3.95;;
63320;SDS011;49449;48.800;9.534;2023-03-21T07:58:29;6.30;;;4.30;;
63320;SDS011;49449;48.800;9.534;2023-03-21T08:00:59;4.70;;;3.40;;
63320;SDS011;49449;48.800;9.534;2023-03-21T08:03:27;6.80;;;3.90;;
63320;SDS011;49449;48.800;9.534;2023-03-21T08:05:57;5.80;;;4.63;;
63320;SDS011;49449;48.800;9.534;2023-03-21T08:08:26;5.32;;;4.82;;
63320;SDS011;49449;48.800;9.534;2023-03-21T08:10:55;5.85;;;4.07;;
63320;SDS011;49449;48.800;9.534;2023-03-21T08:13:23;5.57;;;4.75;;
63320;SDS011;49449;48.800;9.534;2023-03-21T08:15:51;4.50;;;3.78;;
63320;SDS011;49449;48.800;9.534;2023-03-21T08:18:19;4.25;;;3.85;;
63320;SDS011;49449;48.800;9.534;2023-03-21T08:20:50;4.25;;;3.03;;
63320;SDS011;49449;48.800;9.534;2023-03-21T08:25:49;3.88;;;3.10;;
63320;SDS011;49449;48.800;9.534;2023-03-21T08:28:20;3.67;;;3.17;;
63320;SDS011;49449;48.800;9.534;2023-03-21T08:30:49;5.25;;;3.60;;
63320;SDS011;49449;48.800;9.534;2023-03-21T08:33:17;4.20;;;3.35;;
63320;SDS011;49449;48.800;9.534;2023-03-21T08:35:45;3.78;;;3.13;;
63320;SDS011;49449;48.800;9.534;2023-03-21T08:38:13;3.85;;;2.97;;
63320;SDS011;49449;48.800;9.534;2023-03-21T08:40:42;4.50;;;3.33;;
63320;SDS011;49449;48.800;9.534;2023-03-21T08:43:10;4.03;;;2.90;;
63320;SDS011;49449;48.800;9.534;2023-03-21T08:45:41;3.33;;;3.03;;
63320;SDS011;49449;48.800;9.534;2023-03-21T08:48:09;3.05;;;2.80;;
63320;SDS011;49449;48.800;9.534;2023-03-21T08:50:37;3.08;;;2.80;;
63320;SDS011;49449;48.800;9.534;2023-03-21T08:53:05;2.95;;;2.72;;
63320;SDS011;49449;48.800;9.534;2023-03-21T08:55:32;4.00;;;3.00;;
63320;SDS011;49449;48.800;9.534;2023-03-21T08:58:00;4.63;;;2.95;;
63320;SDS011;49449;48.800;9.534;2023-03-21T09:00:28;3.78;;;3.10;;
63320;SDS011;49449;48.800;9.534;2023-03-21T09:02:58;4.55;;;2.70;;
63320;SDS011;49449;48.800;9.534;2023-03-21T09:05:26;3.50;;;3.03;;
63320;SDS011;49449;48.800;9.534;2023-03-21T09:07:54;3.65;;;3.35;;
63320;SDS011;49449;48.800;9.534;2023-03-21T09:10:22;3.28;;;2.97;;
63320;SDS011;49449;48.800;9.534;2023-03-21T09:12:50;3.00;;;2.78;;
63320;SDS011;49449;48.800;9.534;2023-03-21T09:15:20;3.50;;;2.70;;
63320;SDS011;49449;48.800;9.534;2023-03-21T09:17:49;3.75;;;2.65;;
63320;SDS011;49449;48.800;9.534;2023-03-21T09:20:21;3.55;;;3.25;;
63320;SDS011;49449;48.800;9.534;2023-03-21T09:22:56;3.28;;;2.75;;
63320;SDS011;49449;48.800;9.534;2023-03-21T09:25:25;4.00;;;3.33;;
63320;SDS011;49449;48.800;9.534;2023-03-21T09:27:54;3.13;;;2.78;;
63320;SDS011;49449;48.800;9.534;2023-03-21T09:30:23;5.00;;;2.75;;
63320;SDS011;49449;48.800;9.534;2023-03-21T09:32:51;3.50;;;2.85;;
63320;SDS011;49449;48.800;9.534;2023-03-21T09:35:22;3.10;;;2.80;;
63320;SDS011;49449;48.800;9.534;2023-03-21T09:37:52;3.53;;;2.90;;
63320;SDS011;49449;48.800;9.534;2023-03-21T09:40:26;2.58;;;2.35;;
63320;SDS011;49449;48.800;9.534;2023-03-21T09:43:05;3.30;;;2.40;;
63320;SDS011;49449;48.800;9.534;2023-03-21T09:45:42;5.13;;;2.83;;
63320;SDS011;49449;48.800;9.534;2023-03-21T09:48:19;3.70;;;2.80;;
63320;SDS011;49449;48.800;9.534;2023-03-21T09:50:56;2.40;;;2.20;;
63320;SDS011;49449;48.800;9.534;2023-03-21T09:53:25;2.28;;;2.03;;
63320;SDS011;49449;48.800;9.534;2023-03-21T09:55:57;2.35;;;2.15;;
63320;SDS011;49449;48.800;9.534;2023-03-21T09:58:27;1.98;;;1.65;;
63320;SDS011;49449;48.800;9.534;2023-03-21T10:00:59;2.17;;;1.90;;
63320;SDS011;49449;48.800;9.534;2023-03-21T10:03:36;1.85;;;1.65;;
63320;SDS011;49449;48.800;9.534;2023-03-21T10:06:08;3.33;;;2.40;;
63320;SDS011;49449;48.800;9.534;2023-03-21T10:08:41;1.80;;;1.70;;
63320;SDS011;49449;48.800;9.534;2023-03-21T10:11:14;2.38;;;1.73;;
63320;SDS011;49449;48.800;9.534;2023-03-21T10:13:47;1.92;;;1.80;;
63320;SDS011;49449;48.800;9.534;2023-03-21T10:16:20;1.85;;;1.75;;
63320;SDS011;49449;48.800;9.534;2023-03-21T10:18:53;1.63;;;1.52;;
63320;SDS011;49449;48.800;9.534;2023-03-21T10:21:23;2.10;;;1.90;;
63320;SDS011;49449;48.800;9.534;2023-03-21T10:24:14;1.60;;;1.50;;
63320;SDS011;49449;48.800;9.534;2023-03-21T10:26:44;2.47;;;2.00;;
63320;SDS011;49449;48.800;9.534;2023-03-21T10:29:13;2.28;;;1.92;;
63320;SDS011;49449;48.800;9.534;2023-03-21T10:31:42;1.58;;;1.48;;
63320;SDS011;49449;48.800;9.534;2023-03-21T10:34:13;1.73;;;1.63;;
63320;SDS011;49449;48.800;9.534;2023-03-21T10:36:44;1.60;;;1.50;;
63320;SDS011;49449;48.800;9.534;2023-03-21T10:39:16;1.50;;;1.40;;
63320;SDS011;49449;48.800;9.534;2023-03-21T10:41:51;1.85;;;1.75;;
63320;SDS011;49449;48.800;9.534;2023-03-21T10:44:19;1.50;;;1.40;;
63320;SDS011;49449;48.800;9.534;2023-03-21T10:46:51;1.15;;;1.10;;
63320;SDS011;49449;48.800;9.534;2023-03-21T10:49:20;1.63;;;1.52;;
63320;SDS011;49449;48.800;9.534;2023-03-21T10:51:50;1.80;;;1.42;;
63320;SDS011;49449;48.800;9.534;2023-03-21T10:54:21;1.30;;;1.25;;
63320;SDS011;49449;48.800;9.534;2023-03-21T10:56:54;1.13;;;1.13;;
63320;SDS011;49449;48.800;9.534;2023-03-21T10:59:24;1.15;;;1.13;;
63320;SDS011;49449;48.800;9.534;2023-03-21T11:01:56;1.23;;;1.13;;
63320;SDS011;49449;48.800;9.534;2023-03-21T11:04:25;1.90;;;1.27;;
63320;SDS011;49449;48.800;9.534;2023-03-21T11:06:58;1.20;;;1.10;;
63320;SDS011;49449;48.800;9.534;2023-03-21T11:09:41;1.05;;;0.90;;
63320;SDS011;49449;48.800;9.534;2023-03-21T11:12:11;2.10;;;1.70;;
63320;SDS011;49449;48.800;9.534;2023-03-21T11:14:41;1.17;;;1.08;;
63320;SDS011;49449;48.800;9.534;2023-03-21T11:17:20;1.40;;;1.40;;
63320;SDS011;49449;48.800;9.534;2023-03-21T11:19:50;1.33;;;1.23;;
63320;SDS011;49449;48.800;9.534;2023-03-21T11:22:22;1.60;;;1.50;;
63320;SDS011;49449;48.800;9.534;2023-03-21T11:24:52;1.20;;;1.10;;
63320;SDS011;49449;48.800;9.534;2023-03-21T11:27:23;1.27;;;1.20;;
63320;SDS011;49449;48.800;9.534;2023-03-21T11:29:55;1.27;;;1.20;;
63320;SDS011;49449;48.800;9.534;2023-03-21T11:32:25;1.05;;;1.02;;
63320;SDS011;49449;48.800;9.534;2023-03-21T11:34:59;1.42;;;1.27;;
63320;SDS011;49449;48.800;9.534;2023-03-21T11:37:32;1.23;;;1.13;;
63320;SDS011;49449;48.800;9.534;2023-03-21T11:40:05;1.58;;;1.48;;
63320;SDS011;49449;48.800;9.534;2023-03-21T11:42:45;1.33;;;1.27;;
63320;SDS011;49449;48.800;9.534;2023-03-21T11:45:16;1.70;;;1.40;;
63320;SDS011;49449;48.800;9.534;2023-03-21T11:47:45;1.60;;;1.50;;
63320;SDS011;49449;48.800;9.534;2023-03-21T11:50:18;2.67;;;1.17;;
63320;SDS011;49449;48.800;9.534;2023-03-21T11:52:57;1.45;;;1.33;;
63320;SDS011;49449;48.800;9.534;2023-03-21T11:55:35;1.38;;;1.27;;
63320;SDS011;49449;48.800;9.534;2023-03-21T11:58:15;1.38;;;1.23;;
63320;SDS011;49449;48.800;9.534;2023-03-21T12:00:55;1.30;;;1.20;;
63320;SDS011;49449;48.800;9.534;2023-03-21T12:06:24;1.60;;;1.50;;
63320;SDS011;49449;48.800;9.534;2023-03-21T12:09:01;1.13;;;1.05;;
63320;SDS011;49449;48.800;9.534;2023-03-21T12:11:36;1.58;;;1.48;;
63320;SDS011;49449;48.800;9.534;2023-03-21T12:14:14;1.42;;;1.33;;
63320;SDS011;49449;48.800;9.534;2023-03-21T12:16:51;2.33;;;0.98;;
63320;SDS011;49449;48.800;9.534;2023-03-21T12:22:36;1.60;;;1.50;;
63320;SDS011;49449;48.800;9.534;2023-03-21T12:25:15;2.30;;;1.60;;
63320;SDS011;49449;48.800;9.534;2023-03-21T12:27:49;1.85;;;1.40;;
63320;SDS011;49449;48.800;9.534;2023-03-21T12:30:32;1.65;;;1.35;;
63320;SDS011;49449;48.800;9.534;2023-03-21T12:33:13;1.83;;;1.42;;
63320;SDS011;49449;48.800;9.534;2023-03-21T12:36:03;1.50;;;1.40;;
63320;SDS011;49449;48.800;9.534;2023-03-21T12:38:46;1.20;;;1.10;;
63320;SDS011;49449;48.800;9.534;2023-03-21T12:41:24;2.25;;;1.40;;
63320;SDS011;49449;48.800;9.534;2023-03-21T12:43:57;1.58;;;1.48;;
63320;SDS011;49449;48.800;9.534;2023-03-21T12:46:31;1.48;;;1.38;;
63320;SDS011;49449;48.800;9.534;2023-03-21T12:49:04;1.17;;;1.17;;
63320;SDS011;49449;48.800;9.534;2023-03-21T12:51:37;1.50;;;1.30;;
63320;SDS011;49449;48.800;9.534;2023-03-21T12:54:12;1.73;;;1.63;;
63320;SDS011;49449;48.800;9.534;2023-03-21T12:56:52;1.70;;;1.60;;
63320;SDS011;49449;48.800;9.534;2023-03-21T12:59:29;1.50;;;1.40;;
63320;SDS011;49449;48.800;9.534;2023-03-21T13:02:04;1.33;;;1.25;;
63320;SDS011;49449;48.800;9.534;2023-03-21T13:04:45;1.42;;;1.33;;
63320;SDS011;49449;48.800;9.534;2023-03-21T13:07:16;1.08;;;1.08;;
63320;SDS011;49449;48.800;9.534;2023-03-21T13:09:47;1.40;;;1.30;;
63320;SDS011;49449;48.800;9.534;2023-03-21T13:12:20;1.05;;;1.05;;
63320;SDS011;49449;48.800;9.534;2023-03-21T13:15:11;1.35;;;1.25;;
63320;SDS011;49449;48.800;9.534;2023-03-21T13:17:49;1.73;;;1.42;;
63320;SDS011;49449;48.800;9.534;2023-03-21T13:20:24;2.35;;;1.20;;
63320;SDS011;49449;48.800;9.534;2023-03-21T13:23:01;1.30;;;1.10;;
63320;SDS011;49449;48.800;9.534;2023-03-21T13:25:31;1.27;;;1.17;;
63320;SDS011;49449;48.800;9.534;2023-03-21T13:28:01;1.30;;;1.20;;
63320;SDS011;49449;48.800;9.534;2023-03-21T13:30:31;1.45;;;1.30;;
63320;SDS011;49449;48.800;9.534;2023-03-21T13:33:03;1.80;;;1.70;;
63320;SDS011;49449;48.800;9.534;2023-03-21T13:35:33;1.33;;;1.23;;
63320;SDS011;49449;48.800;9.534;2023-03-21T13:38:04;1.40;;;1.30;;
63320;SDS011;49449;48.800;9.534;2023-03-21T13:40:39;1.30;;;1.20;;
63320;SDS011;49449;48.800;9.534;2023-03-21T13:46:06;1.98;;;1.77;;
63320;SDS011;49449;48.800;9.534;2023-03-21T13:48:43;1.35;;;1.25;;
63320;SDS011;49449;48.800;9.534;2023-03-21T13:51:41;1.60;;;1.50;;
63320;SDS011;49449;48.800;9.534;2023-03-21T13:54:18;1.75;;;1.00;;
63320;SDS011;49449;48.800;9.534;2023-03-21T13:56:53;1.30;;;1.20;;
63320;SDS011;49449;48.800;9.534;2023-03-21T13:59:37;1.88;;;1.48;;
63320;SDS011;49449;48.800;9.534;2023-03-21T14:02:23;1.33;;;1.25;;
63320;SDS011;49449;48.800;9.534;2023-03-21T14:04:57;1.70;;;1.10;;
63320;SDS011;49449;48.800;9.534;2023-03-21T14:07:32;1.35;;;1.25;;
63320;SDS011;49449;48.800;9.534;2023-03-21T14:10:03;1.33;;;1.23;;
63320;SDS011;49449;48.800;9.534;2023-03-21T14:12:36;1.50;;;1.35;;
63320;SDS011;49449;48.800;9.534;2023-03-21T14:15:12;1.75;;;1.65;;
63320;SDS011;49449;48.800;9.534;2023-03-21T14:17:50;1.40;;;1.30;;
63320;SDS011;49449;48.800;9.534;2023-03-21T14:20:21;1.42;;;1.20;;
63320;SDS011;49449;48.800;9.534;2023-03-21T14:22:49;1.73;;;1.63;;
63320;SDS011;49449;48.800;9.534;2023-03-21T14:25:18;1.60;;;1.50;;
63320;SDS011;49449;48.800;9.534;2023-03-21T14:27:50;1.63;;;1.52;;
63320;SDS011;49449;48.800;9.534;2023-03-21T14:30:23;1.92;;;1.83;;
63320;SDS011;49449;48.800;9.534;2023-03-21T14:32:53;1.98;;;1.38;;
63320;SDS011;49449;48.800;9.534;2023-03-21T14:35:27;1.65;;;1.55;;
63320;SDS011;49449;48.800;9.534;2023-03-21T14:37:59;1.30;;;1.30;;
63320;SDS011;49449;48.800;9.534;2023-03-21T14:40:28;1.67;;;1.38;;
63320;SDS011;49449;48.800;9.534;2023-03-21T14:42:56;1.50;;;1.40;;
63320;SDS011;49449;48.800;9.534;2023-03-21T14:45:27;2.53;;;1.25;;
63320;SDS011;49449;48.800;9.534;2023-03-21T14:47:57;2.88;;;1.30;;
63320;SDS011;49449;48.800;9.534;2023-03-21T14:50:28;1.30;;;1.20;;
63320;SDS011;49449;48.800;9.534;2023-03-21T14:53:01;1.50;;;1.40;;
63320;SDS011;49449;48.800;9.534;2023-03-21T14:55:29;1.92;;;1.15;;
63320;SDS011;49449;48.800;9.534;2023-03-21T14:57:57;1.90;;;1.80;;
63320;SDS011;49449;48.800;9.534;2023-03-21T15:00:27;2.53;;;1.40;;
63320;SDS011;49449;48.800;9.534;2023-03-21T15:02:56;2.05;;;1.75;;
63320;SDS011;49449;48.800;9.534;2023-03-21T15:05:27;1.70;;;1.60;;
63320;SDS011;49449;48.800;9.534;2023-03-21T15:07:58;2.03;;;1.70;;
63320;SDS011;49449;48.800;9.534;2023-03-21T15:10:28;1.80;;;1.67;;
63320;SDS011;49449;48.800;9.534;2023-03-21T15:12:58;1.60;;;1.50;;
63320;SDS011;49449;48.800;9.534;2023-03-21T15:15:29;1.73;;;1.30;;
63320;SDS011;49449;48.800;9.534;2023-03-21T15:17:59;2.42;;;1.70;;
63320;SDS011;49449;48.800;9.534;2023-03-21T15:20:31;1.65;;;1.55;;
63320;SDS011;49449;48.800;9.534;2023-03-21T15:23:02;2.13;;;1.85;;
63320;SDS011;49449;48.800;9.534;2023-03-21T15:25:36;1.60;;;1.50;;
63320;SDS011;49449;48.800;9.534;2023-03-21T15:28:05;1.60;;;1.40;;
63320;SDS011;49449;48.800;9.534;2023-03-21T15:30:34;1.73;;;1.52;;
63320;SDS011;49449;48.800;9.534;2023-03-21T15:33:06;1.50;;;1.40;;